sensor_id;sensor_type;location;lat;lon;timestamp;P1;durP1;ratioP1;P2;durP2;ratioP2
74849;SDS011;63397;47.480;19.238;2023-04-03T00:00:18;4.97;;;1.85;;
74849;SDS011;63397;47.480;19.238;2023-04-03T00:03:20;2.40;;;0.93;;
74849;SDS011;63397;47.480;19.238;2023-04-03T00:06:23;5.03;;;0.93;;
74849;SDS011;63397;47.480;19.238;2023-04-03T00:09:25;3.80;;;1.13;;
74849;SDS011;63397;47.480;19.238;2023-04-03T00:12:27;4.68;;;1.20;;
74849;SDS011;63397;47.480;19.238;2023-04-03T00:15:30;4.95;;;1.92;;
74849;SDS011;63397;47.480;19.238;2023-04-03T00:18:32;4.30;;;1.58;;
74849;SDS011;63397;47.480;19.238;2023-04-03T00:21:34;3.67;;;1.55;;
74849;SDS011;63397;47.480;19.238;2023-04-03T00:24:37;4.03;;;1.27;;
74849;SDS011;63397;47.480;19.238;2023-04-03T00:27:39;6.20;;;2.15;;
74849;SDS011;63397;47.480;19.238;2023-04-03T00:30:42;6.20;;;2.03;;
74849;SDS011;63397;47.480;19.238;2023-04-03T00:33:44;5.50;;;1.92;;
74849;SDS011;63397;47.480;19.238;2023-04-03T00:36:47;4.25;;;1.70;;
74849;SDS011;63397;47.480;19.238;2023-04-03T00:39:49;4.60;;;1.53;;
74849;SDS011;63397;47.480;19.238;2023-04-03T00:42:55;4.95;;;1.73;;
74849;SDS011;63397;47.480;19.238;2023-04-03T00:45:58;2.40;;;1.00;;
74849;SDS011;63397;47.480;19.238;2023-04-03T00:49:01;5.13;;;1.90;;
74849;SDS011;63397;47.480;19.238;2023-04-03T00:52:03;3.28;;;1.25;;
74849;SDS011;63397;47.480;19.238;2023-04-03T00:55:09;6.47;;;1.70;;
74849;SDS011;63397;47.480;19.238;2023-04-03T00:58:11;6.43;;;2.08;;
74849;SDS011;63397;47.480;19.238;2023-04-03T01:01:16;5.05;;;1.70;;
74849;SDS011;63397;47.480;19.238;2023-04-03T01:04:27;6.22;;;1.75;;
74849;SDS011;63397;47.480;19.238;2023-04-03T01:07:30;7.57;;;2.45;;
74849;SDS011;63397;47.480;19.238;2023-04-03T01:10:33;6.03;;;1.73;;
74849;SDS011;63397;47.480;19.238;2023-04-03T01:13:35;6.95;;;2.60;;
74849;SDS011;63397;47.480;19.238;2023-04-03T01:16:40;5.28;;;1.90;;
74849;SDS011;63397;47.480;19.238;2023-04-03T01:19:42;5.72;;;1.42;;
74849;SDS011;63397;47.480;19.238;2023-04-03T01:25:52;5.80;;;1.83;;
74849;SDS011;63397;47.480;19.238;2023-04-03T01:28:55;7.47;;;2.25;;
74849;SDS011;63397;47.480;19.238;2023-04-03T01:31:58;4.30;;;1.45;;
74849;SDS011;63397;47.480;19.238;2023-04-03T01:35:01;6.00;;;2.17;;
74849;SDS011;63397;47.480;19.238;2023-04-03T01:38:03;6.60;;;1.80;;
74849;SDS011;63397;47.480;19.238;2023-04-03T01:41:06;5.77;;;2.10;;
74849;SDS011;63397;47.480;19.238;2023-04-03T01:44:08;5.20;;;1.98;;
74849;SDS011;63397;47.480;19.238;2023-04-03T01:47:10;6.57;;;2.00;;
74849;SDS011;63397;47.480;19.238;2023-04-03T01:50:14;4.97;;;1.70;;
74849;SDS011;63397;47.480;19.238;2023-04-03T01:53:17;7.05;;;1.60;;
74849;SDS011;63397;47.480;19.238;2023-04-03T01:56:19;6.93;;;2.27;;
74849;SDS011;63397;47.480;19.238;2023-04-03T01:59:22;4.35;;;1.48;;
74849;SDS011;63397;47.480;19.238;2023-04-03T02:02:25;6.65;;;2.28;;
74849;SDS011;63397;47.480;19.238;2023-04-03T02:05:28;4.88;;;1.67;;
74849;SDS011;63397;47.480;19.238;2023-04-03T02:08:31;8.80;;;1.92;;
74849;SDS011;63397;47.480;19.238;2023-04-03T02:11:34;6.77;;;1.87;;
74849;SDS011;63397;47.480;19.238;2023-04-03T02:14:36;5.20;;;1.98;;
74849;SDS011;63397;47.480;19.238;2023-04-03T02:17:39;5.13;;;1.70;;
74849;SDS011;63397;47.480;19.238;2023-04-03T02:20:41;7.20;;;2.33;;
74849;SDS011;63397;47.480;19.238;2023-04-03T02:23:43;5.75;;;1.83;;
74849;SDS011;63397;47.480;19.238;2023-04-03T02:26:46;4.03;;;1.30;;
74849;SDS011;63397;47.480;19.238;2023-04-03T02:29:49;6.45;;;1.92;;
74849;SDS011;63397;47.480;19.238;2023-04-03T02:32:52;6.20;;;1.95;;
74849;SDS011;63397;47.480;19.238;2023-04-03T02:35:55;4.63;;;1.60;;
74849;SDS011;63397;47.480;19.238;2023-04-03T02:38:57;4.47;;;1.50;;
74849;SDS011;63397;47.480;19.238;2023-04-03T02:42:00;3.27;;;1.40;;
74849;SDS011;63397;47.480;19.238;2023-04-03T02:45:03;3.13;;;1.50;;
74849;SDS011;63397;47.480;19.238;2023-04-03T02:48:05;5.60;;;1.48;;
74849;SDS011;63397;47.480;19.238;2023-04-03T02:51:07;4.53;;;1.25;;
74849;SDS011;63397;47.480;19.238;2023-04-03T02:54:10;5.20;;;1.48;;
74849;SDS011;63397;47.480;19.238;2023-04-03T02:57:15;4.97;;;1.30;;
74849;SDS011;63397;47.480;19.238;2023-04-03T03:00:18;3.42;;;1.13;;
74849;SDS011;63397;47.480;19.238;2023-04-03T03:03:20;4.70;;;1.40;;
74849;SDS011;63397;47.480;19.238;2023-04-03T03:06:22;3.65;;;1.33;;
74849;SDS011;63397;47.480;19.238;2023-04-03T03:09:24;4.65;;;1.48;;
74849;SDS011;63397;47.480;19.238;2023-04-03T03:12:28;3.43;;;1.07;;
74849;SDS011;63397;47.480;19.238;2023-04-03T03:15:32;3.08;;;0.93;;
74849;SDS011;63397;47.480;19.238;2023-04-03T03:18:36;3.22;;;1.00;;
74849;SDS011;63397;47.480;19.238;2023-04-03T03:21:39;5.00;;;1.50;;
74849;SDS011;63397;47.480;19.238;2023-04-03T03:24:41;6.30;;;1.40;;
74849;SDS011;63397;47.480;19.238;2023-04-03T03:27:43;3.07;;;1.17;;
74849;SDS011;63397;47.480;19.238;2023-04-03T03:30:46;3.65;;;1.30;;
74849;SDS011;63397;47.480;19.238;2023-04-03T03:33:48;3.95;;;1.30;;
74849;SDS011;63397;47.480;19.238;2023-04-03T03:36:51;4.35;;;1.60;;
74849;SDS011;63397;47.480;19.238;2023-04-03T03:39:53;2.72;;;0.73;;
74849;SDS011;63397;47.480;19.238;2023-04-03T03:42:56;4.37;;;1.37;;
74849;SDS011;63397;47.480;19.238;2023-04-03T03:45:58;3.42;;;1.05;;
74849;SDS011;63397;47.480;19.238;2023-04-03T03:49:02;2.90;;;0.98;;
74849;SDS011;63397;47.480;19.238;2023-04-03T03:52:04;3.55;;;1.30;;
74849;SDS011;63397;47.480;19.238;2023-04-03T03:55:06;4.07;;;1.38;;
74849;SDS011;63397;47.480;19.238;2023-04-03T03:58:11;5.40;;;1.07;;
74849;SDS011;63397;47.480;19.238;2023-04-03T04:01:13;2.47;;;0.80;;
74849;SDS011;63397;47.480;19.238;2023-04-03T04:04:20;4.93;;;1.15;;
74849;SDS011;63397;47.480;19.238;2023-04-03T04:07:23;3.33;;;0.95;;
74849;SDS011;63397;47.480;19.238;2023-04-03T04:10:26;3.80;;;1.13;;
74849;SDS011;63397;47.480;19.238;2023-04-03T04:13:30;2.70;;;0.90;;
74849;SDS011;63397;47.480;19.238;2023-04-03T04:16:32;2.58;;;1.15;;
74849;SDS011;63397;47.480;19.238;2023-04-03T04:19:40;2.47;;;0.98;;
74849;SDS011;63397;47.480;19.238;2023-04-03T04:22:43;3.50;;;1.20;;
74849;SDS011;63397;47.480;19.238;2023-04-03T04:25:47;4.47;;;1.20;;
74849;SDS011;63397;47.480;19.238;2023-04-03T04:28:49;3.80;;;1.23;;
74849;SDS011;63397;47.480;19.238;2023-04-03T04:31:53;2.50;;;0.90;;
74849;SDS011;63397;47.480;19.238;2023-04-03T04:34:57;2.95;;;1.38;;
74849;SDS011;63397;47.480;19.238;2023-04-03T04:38:00;3.25;;;1.23;;
74849;SDS011;63397;47.480;19.238;2023-04-03T04:41:02;3.00;;;1.15;;
74849;SDS011;63397;47.480;19.238;2023-04-03T04:44:05;2.93;;;1.20;;
74849;SDS011;63397;47.480;19.238;2023-04-03T04:47:08;4.20;;;1.10;;
74849;SDS011;63397;47.480;19.238;2023-04-03T04:50:10;3.30;;;1.25;;
74849;SDS011;63397;47.480;19.238;2023-04-03T04:53:14;3.13;;;1.27;;
74849;SDS011;63397;47.480;19.238;2023-04-03T04:56:17;1.73;;;0.75;;
74849;SDS011;63397;47.480;19.238;2023-04-03T04:59:20;3.30;;;1.17;;
74849;SDS011;63397;47.480;19.238;2023-04-03T05:02:24;3.15;;;1.42;;
74849;SDS011;63397;47.480;19.238;2023-04-03T05:05:28;2.75;;;0.90;;
74849;SDS011;63397;47.480;19.238;2023-04-03T05:08:30;2.67;;;1.00;;
74849;SDS011;63397;47.480;19.238;2023-04-03T05:11:34;4.65;;;1.45;;
74849;SDS011;63397;47.480;19.238;2023-04-03T05:14:39;4.23;;;1.30;;
74849;SDS011;63397;47.480;19.238;2023-04-03T05:17:43;3.03;;;1.02;;
74849;SDS011;63397;47.480;19.238;2023-04-03T05:20:49;2.88;;;1.10;;
74849;SDS011;63397;47.480;19.238;2023-04-03T05:23:53;4.63;;;1.30;;
74849;SDS011;63397;47.480;19.238;2023-04-03T05:26:56;3.88;;;1.35;;
74849;SDS011;63397;47.480;19.238;2023-04-03T05:29:58;3.80;;;1.73;;
74849;SDS011;63397;47.480;19.238;2023-04-03T05:33:02;5.35;;;2.25;;
74849;SDS011;63397;47.480;19.238;2023-04-03T05:36:14;4.68;;;1.50;;
74849;SDS011;63397;47.480;19.238;2023-04-03T05:39:23;4.28;;;1.23;;
74849;SDS011;63397;47.480;19.238;2023-04-03T05:42:26;6.90;;;2.08;;
74849;SDS011;63397;47.480;19.238;2023-04-03T05:45:31;5.20;;;1.73;;
74849;SDS011;63397;47.480;19.238;2023-04-03T05:48:35;8.20;;;1.80;;
74849;SDS011;63397;47.480;19.238;2023-04-03T05:51:39;4.15;;;1.90;;
74849;SDS011;63397;47.480;19.238;2023-04-03T05:55:05;5.65;;;1.65;;
74849;SDS011;63397;47.480;19.238;2023-04-03T05:58:09;5.72;;;2.08;;
74849;SDS011;63397;47.480;19.238;2023-04-03T06:01:35;6.57;;;2.00;;
74849;SDS011;63397;47.480;19.238;2023-04-03T06:04:40;4.38;;;1.70;;
74849;SDS011;63397;47.480;19.238;2023-04-03T06:07:44;4.53;;;1.95;;
74849;SDS011;63397;47.480;19.238;2023-04-03T06:10:47;2.80;;;1.00;;
74849;SDS011;63397;47.480;19.238;2023-04-03T06:13:52;4.93;;;1.60;;
74849;SDS011;63397;47.480;19.238;2023-04-03T06:16:55;3.57;;;1.50;;
74849;SDS011;63397;47.480;19.238;2023-04-03T06:19:58;3.97;;;1.45;;
74849;SDS011;63397;47.480;19.238;2023-04-03T06:23:01;3.05;;;1.17;;
74849;SDS011;63397;47.480;19.238;2023-04-03T06:26:04;4.45;;;1.00;;
74849;SDS011;63397;47.480;19.238;2023-04-03T06:29:07;2.60;;;0.77;;
74849;SDS011;63397;47.480;19.238;2023-04-03T06:32:09;3.37;;;1.10;;
74849;SDS011;63397;47.480;19.238;2023-04-03T06:35:12;2.97;;;1.13;;
74849;SDS011;63397;47.480;19.238;2023-04-03T06:38:14;2.70;;;1.13;;
74849;SDS011;63397;47.480;19.238;2023-04-03T06:41:18;2.25;;;0.95;;
74849;SDS011;63397;47.480;19.238;2023-04-03T06:44:20;2.75;;;1.40;;
74849;SDS011;63397;47.480;19.238;2023-04-03T06:47:25;2.17;;;0.90;;
74849;SDS011;63397;47.480;19.238;2023-04-03T06:50:29;1.98;;;0.65;;
74849;SDS011;63397;47.480;19.238;2023-04-03T06:53:35;2.42;;;0.95;;
74849;SDS011;63397;47.480;19.238;2023-04-03T06:56:39;4.10;;;1.05;;
74849;SDS011;63397;47.480;19.238;2023-04-03T06:59:42;4.35;;;0.98;;
74849;SDS011;63397;47.480;19.238;2023-04-03T07:02:44;2.90;;;0.87;;
74849;SDS011;63397;47.480;19.238;2023-04-03T07:05:47;4.97;;;1.30;;
74849;SDS011;63397;47.480;19.238;2023-04-03T07:08:50;2.50;;;0.80;;
74849;SDS011;63397;47.480;19.238;2023-04-03T07:11:53;2.83;;;1.10;;
74849;SDS011;63397;47.480;19.238;2023-04-03T07:14:55;3.55;;;0.80;;
74849;SDS011;63397;47.480;19.238;2023-04-03T07:17:57;2.50;;;0.70;;
74849;SDS011;63397;47.480;19.238;2023-04-03T07:21:00;3.17;;;0.90;;
74849;SDS011;63397;47.480;19.238;2023-04-03T07:24:02;2.90;;;1.10;;
74849;SDS011;63397;47.480;19.238;2023-04-03T07:27:05;3.83;;;1.30;;
74849;SDS011;63397;47.480;19.238;2023-04-03T07:30:07;3.45;;;0.70;;
74849;SDS011;63397;47.480;19.238;2023-04-03T07:33:11;3.37;;;0.63;;
74849;SDS011;63397;47.480;19.238;2023-04-03T07:36:18;2.55;;;0.80;;
74849;SDS011;63397;47.480;19.238;2023-04-03T07:39:20;2.38;;;1.08;;
74849;SDS011;63397;47.480;19.238;2023-04-03T07:42:23;2.08;;;0.90;;
74849;SDS011;63397;47.480;19.238;2023-04-03T07:45:25;2.55;;;1.15;;
74849;SDS011;63397;47.480;19.238;2023-04-03T07:48:30;2.67;;;0.77;;
74849;SDS011;63397;47.480;19.238;2023-04-03T07:51:32;2.10;;;0.68;;
74849;SDS011;63397;47.480;19.238;2023-04-03T07:54:35;2.97;;;1.00;;
74849;SDS011;63397;47.480;19.238;2023-04-03T07:57:46;3.10;;;1.17;;
74849;SDS011;63397;47.480;19.238;2023-04-03T08:00:49;2.78;;;1.00;;
74849;SDS011;63397;47.480;19.238;2023-04-03T08:03:52;2.67;;;0.97;;
74849;SDS011;63397;47.480;19.238;2023-04-03T08:06:57;1.48;;;0.65;;
74849;SDS011;63397;47.480;19.238;2023-04-03T08:10:00;3.10;;;0.77;;
74849;SDS011;63397;47.480;19.238;2023-04-03T08:13:02;2.50;;;0.75;;
74849;SDS011;63397;47.480;19.238;2023-04-03T08:16:12;2.03;;;0.77;;
74849;SDS011;63397;47.480;19.238;2023-04-03T08:19:15;2.67;;;0.80;;
74849;SDS011;63397;47.480;19.238;2023-04-03T08:22:27;3.47;;;1.05;;
74849;SDS011;63397;47.480;19.238;2023-04-03T08:25:29;2.22;;;0.70;;
74849;SDS011;63397;47.480;19.238;2023-04-03T08:28:31;2.50;;;0.73;;
74849;SDS011;63397;47.480;19.238;2023-04-03T08:31:34;2.47;;;1.02;;
74849;SDS011;63397;47.480;19.238;2023-04-03T08:34:36;3.03;;;1.10;;
74849;SDS011;63397;47.480;19.238;2023-04-03T08:37:41;2.60;;;0.95;;
74849;SDS011;63397;47.480;19.238;2023-04-03T08:40:43;5.40;;;0.93;;
74849;SDS011;63397;47.480;19.238;2023-04-03T08:44:00;2.35;;;0.88;;
74849;SDS011;63397;47.480;19.238;2023-04-03T08:50:12;2.13;;;0.73;;
74849;SDS011;63397;47.480;19.238;2023-04-03T08:53:24;2.03;;;0.70;;
74849;SDS011;63397;47.480;19.238;2023-04-03T08:56:34;2.25;;;0.88;;
74849;SDS011;63397;47.480;19.238;2023-04-03T08:59:38;2.40;;;0.80;;
74849;SDS011;63397;47.480;19.238;2023-04-03T09:02:49;3.55;;;0.85;;
74849;SDS011;63397;47.480;19.238;2023-04-03T09:05:57;1.93;;;0.50;;
74849;SDS011;63397;47.480;19.238;2023-04-03T09:09:07;1.48;;;0.43;;
74849;SDS011;63397;47.480;19.238;2023-04-03T09:12:19;2.20;;;0.75;;
74849;SDS011;63397;47.480;19.238;2023-04-03T09:15:23;2.70;;;0.70;;
74849;SDS011;63397;47.480;19.238;2023-04-03T09:18:40;3.10;;;0.80;;
74849;SDS011;63397;47.480;19.238;2023-04-03T09:21:44;2.97;;;0.87;;
74849;SDS011;63397;47.480;19.238;2023-04-03T09:24:55;2.35;;;1.25;;
74849;SDS011;63397;47.480;19.238;2023-04-03T09:27:59;2.65;;;0.82;;
74849;SDS011;63397;47.480;19.238;2023-04-03T09:31:13;1.92;;;0.80;;
74849;SDS011;63397;47.480;19.238;2023-04-03T09:44:17;2.83;;;0.88;;
74849;SDS011;63397;47.480;19.238;2023-04-03T09:47:25;1.88;;;0.70;;
74849;SDS011;63397;47.480;19.238;2023-04-03T09:50:28;2.55;;;0.90;;
74849;SDS011;63397;47.480;19.238;2023-04-03T09:53:39;1.90;;;0.80;;
74849;SDS011;63397;47.480;19.238;2023-04-03T09:56:49;4.35;;;1.40;;
74849;SDS011;63397;47.480;19.238;2023-04-03T09:59:58;2.90;;;0.85;;
74849;SDS011;63397;47.480;19.238;2023-04-03T10:03:23;2.55;;;1.00;;
74849;SDS011;63397;47.480;19.238;2023-04-03T10:06:26;5.00;;;1.20;;
74849;SDS011;63397;47.480;19.238;2023-04-03T10:09:32;2.73;;;1.10;;
74849;SDS011;63397;47.480;19.238;2023-04-03T10:12:35;3.38;;;1.33;;
74849;SDS011;63397;47.480;19.238;2023-04-03T10:15:50;2.47;;;0.90;;
74849;SDS011;63397;47.480;19.238;2023-04-03T10:22:06;3.17;;;1.00;;
74849;SDS011;63397;47.480;19.238;2023-04-03T10:25:31;2.67;;;0.80;;
74849;SDS011;63397;47.480;19.238;2023-04-03T10:28:36;1.70;;;0.73;;
74849;SDS011;63397;47.480;19.238;2023-04-03T10:35:03;2.53;;;0.98;;
74849;SDS011;63397;47.480;19.238;2023-04-03T10:54:13;3.00;;;0.90;;
74849;SDS011;63397;47.480;19.238;2023-04-03T10:57:21;2.43;;;1.10;;
74849;SDS011;63397;47.480;19.238;2023-04-03T11:00:34;6.30;;;0.80;;
74849;SDS011;63397;47.480;19.238;2023-04-03T11:03:47;3.78;;;1.02;;
74849;SDS011;63397;47.480;19.238;2023-04-03T11:06:54;2.35;;;0.88;;
74849;SDS011;63397;47.480;19.238;2023-04-03T11:13:28;3.07;;;1.00;;
74849;SDS011;63397;47.480;19.238;2023-04-03T11:16:33;3.25;;;0.57;;
74849;SDS011;63397;47.480;19.238;2023-04-03T11:22:58;2.42;;;0.60;;
74849;SDS011;63397;47.480;19.238;2023-04-03T11:26:13;1.23;;;0.52;;
74849;SDS011;63397;47.480;19.238;2023-04-03T11:29:19;1.77;;;0.50;;
74849;SDS011;63397;47.480;19.238;2023-04-03T11:32:41;1.25;;;0.50;;
74849;SDS011;63397;47.480;19.238;2023-04-03T11:35:54;1.10;;;0.40;;
74849;SDS011;63397;47.480;19.238;2023-04-03T11:39:00;1.95;;;0.65;;
74849;SDS011;63397;47.480;19.238;2023-04-03T11:45:54;1.50;;;0.60;;
74849;SDS011;63397;47.480;19.238;2023-04-03T11:48:57;1.90;;;0.63;;
74849;SDS011;63397;47.480;19.238;2023-04-03T11:51:59;2.05;;;0.80;;
74849;SDS011;63397;47.480;19.238;2023-04-03T11:55:02;2.00;;;0.50;;
74849;SDS011;63397;47.480;19.238;2023-04-03T11:58:12;2.22;;;0.70;;
74849;SDS011;63397;47.480;19.238;2023-04-03T12:01:42;2.47;;;0.70;;
74849;SDS011;63397;47.480;19.238;2023-04-03T12:04:40;1.45;;;0.70;;
74849;SDS011;63397;47.480;19.238;2023-04-03T12:11:25;2.28;;;0.57;;
74849;SDS011;63397;47.480;19.238;2023-04-03T12:14:31;2.53;;;0.70;;
74849;SDS011;63397;47.480;19.238;2023-04-03T12:17:35;2.70;;;0.80;;
74849;SDS011;63397;47.480;19.238;2023-04-03T12:30:35;1.63;;;0.70;;
74849;SDS011;63397;47.480;19.238;2023-04-03T12:33:51;2.17;;;0.50;;
74849;SDS011;63397;47.480;19.238;2023-04-03T12:37:15;4.13;;;0.70;;
74849;SDS011;63397;47.480;19.238;2023-04-03T12:43:30;2.17;;;0.60;;
74849;SDS011;63397;47.480;19.238;2023-04-03T12:46:42;0.90;;;0.30;;
74849;SDS011;63397;47.480;19.238;2023-04-03T12:49:45;2.30;;;0.80;;
74849;SDS011;63397;47.480;19.238;2023-04-03T12:52:54;2.17;;;0.60;;
74849;SDS011;63397;47.480;19.238;2023-04-03T12:56:17;2.25;;;0.70;;
74849;SDS011;63397;47.480;19.238;2023-04-03T12:59:24;1.73;;;0.50;;
74849;SDS011;63397;47.480;19.238;2023-04-03T13:02:30;1.42;;;0.40;;
74849;SDS011;63397;47.480;19.238;2023-04-03T13:05:33;1.90;;;0.50;;
74849;SDS011;63397;47.480;19.238;2023-04-03T13:08:38;2.10;;;0.70;;
74849;SDS011;63397;47.480;19.238;2023-04-03T13:11:50;2.10;;;0.50;;
74849;SDS011;63397;47.480;19.238;2023-04-03T13:14:55;5.13;;;0.70;;
74849;SDS011;63397;47.480;19.238;2023-04-03T13:17:58;1.20;;;0.50;;
74849;SDS011;63397;47.480;19.238;2023-04-03T13:21:23;2.00;;;0.60;;
74849;SDS011;63397;47.480;19.238;2023-04-03T13:24:23;1.73;;;0.50;;
74849;SDS011;63397;47.480;19.238;2023-04-03T13:27:26;1.40;;;0.43;;
74849;SDS011;63397;47.480;19.238;2023-04-03T13:30:30;1.42;;;0.47;;
74849;SDS011;63397;47.480;19.238;2023-04-03T13:33:34;1.77;;;0.50;;
74849;SDS011;63397;47.480;19.238;2023-04-03T13:36:50;2.00;;;0.60;;
74849;SDS011;63397;47.480;19.238;2023-04-03T13:43:19;1.67;;;0.55;;
74849;SDS011;63397;47.480;19.238;2023-04-03T13:46:24;2.08;;;0.47;;
74849;SDS011;63397;47.480;19.238;2023-04-03T13:49:32;3.17;;;0.65;;
74849;SDS011;63397;47.480;19.238;2023-04-03T13:52:40;0.97;;;0.47;;
74849;SDS011;63397;47.480;19.238;2023-04-03T13:56:44;1.90;;;0.80;;
74849;SDS011;63397;47.480;19.238;2023-04-03T14:02:19;2.20;;;0.50;;
74849;SDS011;63397;47.480;19.238;2023-04-03T14:05:23;1.83;;;0.60;;
74849;SDS011;63397;47.480;19.238;2023-04-03T14:08:27;1.50;;;0.63;;
74849;SDS011;63397;47.480;19.238;2023-04-03T14:11:44;1.92;;;0.45;;
74849;SDS011;63397;47.480;19.238;2023-04-03T14:14:47;2.13;;;0.68;;
74849;SDS011;63397;47.480;19.238;2023-04-03T14:17:49;1.92;;;0.60;;
74849;SDS011;63397;47.480;19.238;2023-04-03T14:20:53;1.38;;;0.50;;
74849;SDS011;63397;47.480;19.238;2023-04-03T14:23:55;1.27;;;0.33;;
74849;SDS011;63397;47.480;19.238;2023-04-03T14:26:58;0.60;;;0.30;;
74849;SDS011;63397;47.480;19.238;2023-04-03T14:30:02;1.25;;;0.40;;
74849;SDS011;63397;47.480;19.238;2023-04-03T14:33:06;1.75;;;0.40;;
74849;SDS011;63397;47.480;19.238;2023-04-03T14:36:13;1.13;;;0.30;;
74849;SDS011;63397;47.480;19.238;2023-04-03T14:39:17;1.23;;;0.40;;
74849;SDS011;63397;47.480;19.238;2023-04-03T14:42:22;1.85;;;0.40;;
74849;SDS011;63397;47.480;19.238;2023-04-03T14:45:24;1.70;;;0.40;;
74849;SDS011;63397;47.480;19.238;2023-04-03T14:48:27;0.95;;;0.30;;
74849;SDS011;63397;47.480;19.238;2023-04-03T14:51:30;1.00;;;0.38;;
74849;SDS011;63397;47.480;19.238;2023-04-03T14:54:33;2.97;;;0.47;;
74849;SDS011;63397;47.480;19.238;2023-04-03T14:57:35;1.42;;;0.50;;
74849;SDS011;63397;47.480;19.238;2023-04-03T15:00:38;1.98;;;0.40;;
74849;SDS011;63397;47.480;19.238;2023-04-03T15:03:41;1.27;;;0.40;;
74849;SDS011;63397;47.480;19.238;2023-04-03T15:06:44;1.05;;;0.40;;
74849;SDS011;63397;47.480;19.238;2023-04-03T15:09:47;1.33;;;0.50;;
74849;SDS011;63397;47.480;19.238;2023-04-03T15:12:49;2.05;;;0.30;;
74849;SDS011;63397;47.480;19.238;2023-04-03T15:15:52;2.58;;;0.60;;
74849;SDS011;63397;47.480;19.238;2023-04-03T15:18:54;1.95;;;0.60;;
74849;SDS011;63397;47.480;19.238;2023-04-03T15:21:56;1.10;;;0.40;;
74849;SDS011;63397;47.480;19.238;2023-04-03T15:24:59;0.93;;;0.37;;
74849;SDS011;63397;47.480;19.238;2023-04-03T15:28:01;1.08;;;0.30;;
74849;SDS011;63397;47.480;19.238;2023-04-03T15:31:04;2.90;;;0.32;;
74849;SDS011;63397;47.480;19.238;2023-04-03T15:34:06;0.93;;;0.30;;
74849;SDS011;63397;47.480;19.238;2023-04-03T15:37:09;1.02;;;0.30;;
74849;SDS011;63397;47.480;19.238;2023-04-03T15:40:11;1.07;;;0.30;;
74849;SDS011;63397;47.480;19.238;2023-04-03T15:43:14;1.40;;;0.50;;
74849;SDS011;63397;47.480;19.238;2023-04-03T15:46:16;2.20;;;0.32;;
74849;SDS011;63397;47.480;19.238;2023-04-03T15:49:19;1.10;;;0.38;;
74849;SDS011;63397;47.480;19.238;2023-04-03T15:52:22;3.25;;;0.40;;
74849;SDS011;63397;47.480;19.238;2023-04-03T15:55:25;2.57;;;0.50;;
74849;SDS011;63397;47.480;19.238;2023-04-03T15:58:27;2.10;;;0.50;;
74849;SDS011;63397;47.480;19.238;2023-04-03T16:01:30;2.60;;;0.73;;
74849;SDS011;63397;47.480;19.238;2023-04-03T16:04:33;1.65;;;0.60;;
74849;SDS011;63397;47.480;19.238;2023-04-03T16:07:36;1.48;;;0.60;;
74849;SDS011;63397;47.480;19.238;2023-04-03T16:10:39;2.10;;;0.60;;
74849;SDS011;63397;47.480;19.238;2023-04-03T16:13:42;1.20;;;0.35;;
74849;SDS011;63397;47.480;19.238;2023-04-03T16:16:44;2.50;;;0.85;;
74849;SDS011;63397;47.480;19.238;2023-04-03T16:19:47;2.72;;;0.75;;
74849;SDS011;63397;47.480;19.238;2023-04-03T16:22:49;1.88;;;0.35;;
74849;SDS011;63397;47.480;19.238;2023-04-03T16:25:51;1.97;;;0.67;;
74849;SDS011;63397;47.480;19.238;2023-04-03T16:28:54;2.88;;;0.70;;
74849;SDS011;63397;47.480;19.238;2023-04-03T16:31:56;3.05;;;0.73;;
74849;SDS011;63397;47.480;19.238;2023-04-03T16:34:59;2.00;;;0.60;;
74849;SDS011;63397;47.480;19.238;2023-04-03T16:38:06;1.10;;;0.20;;
74849;SDS011;63397;47.480;19.238;2023-04-03T16:41:08;3.67;;;0.90;;
74849;SDS011;63397;47.480;19.238;2023-04-03T16:44:11;2.28;;;0.77;;
74849;SDS011;63397;47.480;19.238;2023-04-03T16:47:13;1.70;;;0.60;;
74849;SDS011;63397;47.480;19.238;2023-04-03T16:50:17;2.40;;;0.70;;
74849;SDS011;63397;47.480;19.238;2023-04-03T16:53:20;1.35;;;0.40;;
74849;SDS011;63397;47.480;19.238;2023-04-03T16:56:22;2.07;;;0.60;;
74849;SDS011;63397;47.480;19.238;2023-04-03T16:59:24;2.10;;;0.52;;
74849;SDS011;63397;47.480;19.238;2023-04-03T17:02:27;1.90;;;0.95;;
74849;SDS011;63397;47.480;19.238;2023-04-03T17:05:29;1.90;;;0.63;;
74849;SDS011;63397;47.480;19.238;2023-04-03T17:08:32;3.00;;;0.90;;
74849;SDS011;63397;47.480;19.238;2023-04-03T17:11:34;1.77;;;0.67;;
74849;SDS011;63397;47.480;19.238;2023-04-03T17:14:41;3.20;;;1.10;;
74849;SDS011;63397;47.480;19.238;2023-04-03T17:17:44;1.50;;;0.50;;
74849;SDS011;63397;47.480;19.238;2023-04-03T17:20:46;2.53;;;0.52;;
74849;SDS011;63397;47.480;19.238;2023-04-03T17:23:50;1.88;;;0.65;;
74849;SDS011;63397;47.480;19.238;2023-04-03T17:26:54;0.67;;;0.30;;
74849;SDS011;63397;47.480;19.238;2023-04-03T17:29:56;1.67;;;0.40;;
74849;SDS011;63397;47.480;19.238;2023-04-03T17:32:59;2.60;;;0.50;;
74849;SDS011;63397;47.480;19.238;2023-04-03T17:36:01;1.98;;;0.73;;
74849;SDS011;63397;47.480;19.238;2023-04-03T17:39:05;3.08;;;0.80;;
74849;SDS011;63397;47.480;19.238;2023-04-03T17:42:07;1.93;;;0.70;;
74849;SDS011;63397;47.480;19.238;2023-04-03T17:45:10;2.22;;;0.57;;
74849;SDS011;63397;47.480;19.238;2023-04-03T17:48:12;2.47;;;0.73;;
74849;SDS011;63397;47.480;19.238;2023-04-03T17:51:16;2.45;;;0.82;;
74849;SDS011;63397;47.480;19.238;2023-04-03T17:54:19;1.55;;;0.50;;
74849;SDS011;63397;47.480;19.238;2023-04-03T17:57:21;1.27;;;0.43;;
74849;SDS011;63397;47.480;19.238;2023-04-03T18:00:24;1.73;;;0.52;;
74849;SDS011;63397;47.480;19.238;2023-04-03T18:03:26;2.15;;;0.70;;
74849;SDS011;63397;47.480;19.238;2023-04-03T18:06:32;0.80;;;0.30;;
74849;SDS011;63397;47.480;19.238;2023-04-03T18:09:37;1.60;;;0.73;;
74849;SDS011;63397;47.480;19.238;2023-04-03T18:12:42;4.33;;;0.87;;
74849;SDS011;63397;47.480;19.238;2023-04-03T18:15:44;1.65;;;0.60;;
74849;SDS011;63397;47.480;19.238;2023-04-03T18:18:47;3.22;;;0.80;;
74849;SDS011;63397;47.480;19.238;2023-04-03T18:21:59;3.33;;;1.08;;
74849;SDS011;63397;47.480;19.238;2023-04-03T18:25:03;1.10;;;0.52;;
74849;SDS011;63397;47.480;19.238;2023-04-03T18:28:05;2.47;;;0.80;;
74849;SDS011;63397;47.480;19.238;2023-04-03T18:31:08;2.60;;;0.90;;
74849;SDS011;63397;47.480;19.238;2023-04-03T18:34:14;4.32;;;0.80;;
74849;SDS011;63397;47.480;19.238;2023-04-03T18:37:18;3.15;;;1.00;;
74849;SDS011;63397;47.480;19.238;2023-04-03T18:40:22;1.55;;;0.60;;
74849;SDS011;63397;47.480;19.238;2023-04-03T18:43:24;4.63;;;1.43;;
74849;SDS011;63397;47.480;19.238;2023-04-03T18:46:27;3.50;;;1.00;;
74849;SDS011;63397;47.480;19.238;2023-04-03T18:49:31;3.05;;;0.68;;
74849;SDS011;63397;47.480;19.238;2023-04-03T18:52:33;2.83;;;0.98;;
74849;SDS011;63397;47.480;19.238;2023-04-03T18:55:36;1.70;;;0.70;;
74849;SDS011;63397;47.480;19.238;2023-04-03T18:58:38;3.20;;;1.20;;
74849;SDS011;63397;47.480;19.238;2023-04-03T19:01:41;2.00;;;0.80;;
74849;SDS011;63397;47.480;19.238;2023-04-03T19:04:43;2.50;;;0.65;;
74849;SDS011;63397;47.480;19.238;2023-04-03T19:07:47;3.35;;;1.05;;
74849;SDS011;63397;47.480;19.238;2023-04-03T19:10:50;3.05;;;0.90;;
74849;SDS011;63397;47.480;19.238;2023-04-03T19:13:52;2.03;;;1.20;;
74849;SDS011;63397;47.480;19.238;2023-04-03T19:17:15;1.10;;;0.45;;
74849;SDS011;63397;47.480;19.238;2023-04-03T19:20:17;3.47;;;1.17;;
74849;SDS011;63397;47.480;19.238;2023-04-03T19:23:20;3.10;;;0.85;;
74849;SDS011;63397;47.480;19.238;2023-04-03T19:26:22;5.07;;;1.80;;